createdAt,value
2022-11-27T00:03:59.792Z,11.07
2022-11-27T00:09:53.361Z,10.33
2022-11-27T00:15:48.366Z,8.00
2022-11-27T00:21:41.900Z,10.57
2022-11-27T00:27:35.411Z,13.10
2022-11-27T00:33:30.145Z,14.57
2022-11-27T00:39:23.511Z,11.60
2022-11-27T00:45:16.817Z,11.27
2022-11-27T00:51:15.209Z,10.33
2022-11-27T00:57:09.050Z,10.43
2022-11-27T01:03:02.658Z,10.57
2022-11-27T01:08:58.527Z,10.20
2022-11-27T01:14:52.253Z,9.67
2022-11-27T01:20:45.773Z,9.77
2022-11-27T01:26:40.958Z,9.10
2022-11-27T01:32:34.048Z,9.10
2022-11-27T01:38:28.412Z,9.90
2022-11-27T01:44:54.872Z,9.60
2022-11-27T01:50:48.387Z,9.13
2022-11-27T01:56:43.324Z,9.10
2022-11-27T02:02:38.294Z,9.27
2022-11-27T02:08:31.959Z,7.77
2022-11-27T02:14:32.303Z,8.30
2022-11-27T02:20:36.745Z,8.90
2022-11-27T02:26:52.035Z,7.23
2022-11-27T02:32:53.009Z,8.50
2022-11-27T02:38:50.217Z,8.43
2022-11-27T02:44:48.297Z,7.60
2022-11-27T02:50:45.746Z,8.80
2022-11-27T02:56:41.097Z,8.27
2022-11-27T03:02:37.343Z,7.87
2022-11-27T03:08:36.735Z,7.20
2022-11-27T03:14:30.504Z,8.20
2022-11-27T03:20:27.624Z,7.63
2022-11-27T03:26:22.479Z,7.63
2022-11-27T03:32:16.433Z,7.00
2022-11-27T03:38:09.925Z,7.50
2022-11-27T03:44:11.875Z,7.60
2022-11-27T03:50:20.356Z,8.00
2022-11-27T03:56:18.577Z,9.50
2022-11-27T04:02:15.437Z,8.70
2022-11-27T04:08:08.536Z,7.90
2022-11-27T04:14:01.794Z,7.50
2022-11-27T04:19:56.636Z,8.47
2022-11-27T04:25:50.094Z,9.20
2022-11-27T04:31:43.260Z,8.70
2022-11-27T04:37:38.498Z,10.03
2022-11-27T04:43:31.580Z,10.60
2022-11-27T04:49:25.049Z,10.80
2022-11-27T04:55:19.497Z,11.00
2022-11-27T05:01:13.263Z,10.00
2022-11-27T05:07:06.805Z,11.00
2022-11-27T05:13:01.609Z,10.00
2022-11-27T05:18:54.640Z,10.37
2022-11-27T05:24:47.644Z,10.90
2022-11-27T05:30:42.584Z,10.70
2022-11-27T05:36:36.894Z,10.47
2022-11-27T05:42:30.385Z,10.70
2022-11-27T05:48:24.869Z,10.30
2022-11-27T05:54:17.989Z,9.53
2022-11-27T06:00:12.399Z,12.07
2022-11-27T06:06:09.338Z,9.90
2022-11-27T06:12:02.428Z,11.90
2022-11-27T06:17:55.563Z,11.30
2022-11-27T06:23:50.454Z,10.57
2022-11-27T06:29:43.939Z,11.90
2022-11-27T06:35:37.470Z,10.97
2022-11-27T06:41:32.209Z,11.90
2022-11-27T06:47:25.823Z,11.77
2022-11-27T06:53:19.476Z,12.63
2022-11-27T06:59:15.400Z,11.07
2022-11-27T07:05:09.001Z,11.20
2022-11-27T07:11:03.034Z,10.90
2022-11-27T07:16:57.423Z,10.87
2022-11-27T07:22:50.745Z,10.20
2022-11-27T07:28:44.938Z,10.80
2022-11-27T07:35:18.762Z,9.43
2022-11-27T07:41:14.652Z,9.10
2022-11-27T07:47:07.823Z,9.20
2022-11-27T07:53:02.227Z,10.07
2022-11-27T07:58:57.717Z,8.13
2022-11-27T08:04:51.377Z,8.43
2022-11-27T08:10:45.181Z,8.53
2022-11-27T08:16:39.848Z,9.17
2022-11-27T08:22:33.568Z,8.67
2022-11-27T08:28:27.932Z,7.83
2022-11-27T08:34:22.897Z,8.27
2022-11-27T08:40:16.704Z,8.33
2022-11-27T08:46:10.755Z,6.90
2022-11-27T08:52:06.231Z,8.57
2022-11-27T08:57:59.800Z,7.60
2022-11-27T09:03:53.558Z,7.73
2022-11-27T09:09:49.056Z,9.03
2022-11-27T09:15:42.643Z,8.03
2022-11-27T09:21:35.791Z,7.63
2022-11-27T09:27:30.931Z,8.37
2022-11-27T09:33:24.943Z,8.50
2022-11-27T09:39:19.498Z,8.10
2022-11-27T09:45:17.459Z,7.57
2022-11-27T09:51:17.004Z,8.10
2022-11-27T09:57:15.511Z,8.57
2022-11-27T10:03:15.559Z,8.27
2022-11-27T10:09:20.648Z,7.80
2022-11-27T10:15:20.630Z,7.57
2022-11-27T10:21:22.929Z,7.80
2022-11-27T10:27:21.586Z,9.33
2022-11-27T10:33:21.201Z,7.87
2022-11-27T10:39:22.566Z,8.90
2022-11-27T10:45:23.589Z,7.90
2022-11-27T10:51:20.594Z,8.60
2022-11-27T10:57:25.933Z,9.30
2022-11-27T11:03:19.625Z,7.90
2022-11-27T11:09:19.248Z,8.87
2022-11-27T11:15:15.368Z,7.30
2022-11-27T11:21:17.279Z,7.63
2022-11-27T11:27:16.111Z,8.07
2022-11-27T11:33:14.815Z,8.73
2022-11-27T11:39:08.845Z,7.30
2022-11-27T11:45:06.440Z,7.20
2022-11-27T11:51:06.183Z,7.37
2022-11-27T11:57:04.368Z,8.60
2022-11-27T12:03:15.180Z,7.20
2022-11-27T12:09:31.686Z,8.50
2022-11-27T12:15:31.332Z,7.13
2022-11-27T12:21:30.193Z,6.60
2022-11-27T12:27:46.306Z,6.87
2022-11-27T12:33:58.942Z,6.87
2022-11-27T12:40:06.934Z,6.60
2022-11-27T12:46:05.773Z,6.40
2022-11-27T12:52:11.120Z,6.10
2022-11-27T12:58:08.423Z,6.57
2022-11-27T13:04:13.909Z,6.40
2022-11-27T13:10:22.694Z,5.53
2022-11-27T13:16:23.137Z,6.77
2022-11-27T13:22:22.066Z,7.00
2022-11-27T13:28:25.664Z,7.83
2022-11-27T13:34:22.849Z,7.07
2022-11-27T13:40:24.839Z,7.53
2022-11-27T13:46:23.739Z,8.23
2022-11-27T13:52:20.243Z,7.60
2022-11-27T13:58:15.164Z,7.10
2022-11-27T14:04:10.690Z,6.43
2022-11-27T14:10:10.520Z,7.20
2022-11-27T14:16:10.860Z,6.63
2022-11-27T14:22:16.164Z,7.23
2022-11-27T14:28:17.394Z,7.43
2022-11-27T14:34:28.049Z,7.47
2022-11-27T14:40:24.488Z,7.03
2022-11-27T14:46:20.942Z,7.37
2022-11-27T14:52:18.762Z,7.00
2022-11-27T14:58:19.586Z,7.10
2022-11-27T15:04:14.838Z,9.00
2022-11-27T15:10:23.466Z,7.77
2022-11-27T15:16:19.817Z,5.67
2022-11-27T15:22:18.239Z,5.67
2022-11-27T15:28:34.067Z,7.50
2022-11-27T15:34:31.525Z,7.17
2022-11-27T15:40:30.609Z,7.57
2022-11-27T15:46:30.566Z,8.47
2022-11-27T15:52:24.522Z,8.00
2022-11-27T15:58:18.246Z,9.27
2022-11-27T16:04:13.246Z,8.70
2022-11-27T16:10:08.128Z,6.60
2022-11-27T16:16:03.542Z,8.33
2022-11-27T16:21:58.549Z,8.20
2022-11-27T16:27:52.100Z,8.70
2022-11-27T16:33:45.731Z,8.00
2022-11-27T16:39:41.616Z,8.00
2022-11-27T16:45:37.977Z,7.03
2022-11-27T16:51:33.854Z,7.50
2022-11-27T16:57:28.776Z,6.80
2022-11-27T17:03:23.279Z,8.03
2022-11-27T17:09:17.125Z,7.13
2022-11-27T17:15:13.447Z,7.40
2022-11-27T17:21:09.556Z,8.80
2022-11-27T17:27:03.337Z,8.93
2022-11-27T17:32:58.580Z,11.53
2022-11-27T17:38:52.424Z,10.07
2022-11-27T17:44:46.238Z,8.50
2022-11-27T17:50:41.264Z,8.73
2022-11-27T17:56:36.321Z,10.63
2022-11-27T18:02:30.710Z,10.57
2022-11-27T18:08:26.025Z,9.03
2022-11-27T18:14:19.615Z,9.30
2022-11-27T18:20:13.649Z,10.80
2022-11-27T18:26:09.698Z,8.83
2022-11-27T18:32:03.399Z,9.13
2022-11-27T18:37:56.987Z,12.17
2022-11-27T18:43:52.916Z,8.83
2022-11-27T18:49:48.735Z,9.30
2022-11-27T18:55:42.496Z,8.77
2022-11-27T19:01:42.258Z,9.47
2022-11-27T19:07:36.296Z,9.23
2022-11-27T19:13:30.881Z,8.67
2022-11-27T19:25:42.500Z,8.07
2022-11-27T19:31:38.027Z,8.87
2022-11-27T19:37:34.727Z,8.73
2022-11-27T19:43:29.440Z,9.30
2022-11-27T19:49:24.051Z,10.00
2022-11-27T19:55:18.869Z,8.20
2022-11-27T20:01:14.209Z,9.77
2022-11-27T20:07:08.221Z,10.07
2022-11-27T20:13:04.029Z,8.90
2022-11-27T20:18:57.924Z,8.80
2022-11-27T20:25:17.208Z,8.80
2022-11-27T20:31:06.570Z,8.60
2022-11-27T20:36:59.756Z,8.87
2022-11-27T20:42:54.322Z,8.93
2022-11-27T20:48:50.474Z,9.00
2022-11-27T20:54:44.237Z,7.67
2022-11-27T21:00:40.574Z,8.53
2022-11-27T21:06:40.510Z,8.97
2022-11-27T21:12:37.202Z,7.90
2022-11-27T21:18:30.377Z,7.87
2022-11-27T21:24:27.936Z,8.40
2022-11-27T21:30:22.059Z,7.77
2022-11-27T21:36:16.308Z,8.27
2022-11-27T21:42:11.453Z,7.47
2022-11-27T21:48:06.348Z,7.77
2022-11-27T21:54:01.818Z,8.07
2022-11-27T21:59:56.704Z,7.33
2022-11-27T22:05:58.132Z,8.20
2022-11-27T22:11:54.081Z,7.53
2022-11-27T22:17:48.603Z,8.13
2022-11-27T22:23:42.421Z,7.53
2022-11-27T22:29:36.396Z,9.50
2022-11-27T22:35:31.547Z,8.37
2022-11-27T22:41:27.471Z,7.80
2022-11-27T22:47:20.817Z,7.70
2022-11-27T22:53:15.616Z,6.93
2022-11-27T22:59:31.763Z,7.00
2022-11-27T23:05:24.152Z,8.20
2022-11-27T23:11:21.006Z,7.50
2022-11-27T23:17:14.515Z,7.30
2022-11-27T23:23:07.636Z,6.53
2022-11-27T23:29:02.957Z,7.30
2022-11-27T23:34:56.073Z,6.70
2022-11-27T23:40:49.610Z,6.50
2022-11-27T23:46:44.510Z,6.87
2022-11-27T23:52:38.090Z,6.70
2022-11-27T23:58:31.382Z,7.40
